Main page
METAR-TAF:

METAR-TAF

Airports :

Joliet Regional Airport

Joliet, Illinois, United States

latitude: 41-31-05N, longitude: 088-10-31W, elevation: 581 ft

Current weather observation

The report was made 15 minutes ago, at 05:35 UTC
Wind 7 mph from the Northeast
Temperature 72°F
Humidity 94%
Pressure 29.86 in. Hg
Visibility: 10 miles
Scattered clouds at a height of 5500 ft
Scattered clouds at a height of 7000 ft
Overcast at a height of 11000 ft
light rain

METAR: KJOT 150535Z AUTO 05006KT 10SM -RA SCT055 SCT070 OVC110 22/21 A2986 RMK AO2 P0031 T02180210

Time: 00:50 (05:50 UTC)


TAF: missing

Weather observations and forecasts of more than 4000 airports (METAR and TAF reports).

The available stations are represented by yellow and red dots on the map.

Hover mouse over dot to see the name of the station.

Then click to see weather observations and forecasts.

To change the map : click on the green buttons with a black cross to zoom in, on the green button with a dash to zoom out, or on the green arrows for adjacent maps.


METAR-TAF: